createdAt,value
2023-11-24T00:00:33.611Z,12.27
2023-11-24T00:03:00.946Z,12.95
2023-11-24T00:05:28.261Z,11.95
2023-11-24T00:07:55.534Z,13.32
2023-11-24T00:10:23.088Z,14.40
2023-11-24T00:12:50.565Z,13.45
2023-11-24T00:15:17.886Z,11.50
2023-11-24T00:17:45.090Z,11.27
2023-11-24T00:20:15.377Z,11.73
2023-11-24T00:22:42.762Z,11.27
2023-11-24T00:25:14.077Z,12.10
2023-11-24T00:27:41.663Z,11.13
2023-11-24T00:30:09.005Z,12.00
2023-11-24T00:32:36.589Z,12.32
2023-11-24T00:35:07.543Z,12.00
2023-11-24T00:37:34.949Z,11.88
2023-11-24T00:40:04.085Z,12.60
2023-11-24T00:42:31.526Z,12.45
2023-11-24T00:44:58.779Z,12.07
2023-11-24T00:47:27.473Z,11.98
2023-11-24T00:49:55.301Z,11.68
2023-11-24T00:52:22.574Z,14.13
2023-11-24T00:54:49.747Z,12.77
2023-11-24T00:57:16.928Z,13.30
2023-11-24T00:59:45.614Z,12.57
2023-11-24T01:02:15.573Z,14.85
2023-11-24T01:04:42.918Z,12.55
2023-11-24T01:07:11.162Z,12.57
2023-11-24T01:09:38.502Z,12.73
2023-11-24T01:12:06.390Z,12.65
2023-11-24T01:14:33.668Z,13.65
2023-11-24T01:17:01.590Z,12.80
2023-11-24T01:19:29.295Z,13.10
2023-11-24T01:21:56.626Z,12.95
2023-11-24T01:24:23.877Z,13.95
2023-11-24T01:26:51.215Z,12.77
2023-11-24T01:29:18.553Z,14.40
2023-11-24T01:31:46.012Z,14.60
2023-11-24T01:34:16.007Z,13.38
2023-11-24T01:36:46.092Z,13.27
2023-11-24T01:39:14.053Z,13.27
2023-11-24T01:41:41.713Z,13.23
2023-11-24T01:44:09.863Z,14.05
2023-11-24T01:46:38.534Z,15.35
2023-11-24T01:49:06.710Z,17.80
2023-11-24T01:51:34.703Z,15.02
2023-11-24T01:54:02.134Z,16.60
2023-11-24T01:56:32.199Z,17.35
2023-11-24T01:59:00.371Z,16.60
2023-11-24T02:01:30.521Z,17.90
2023-11-24T02:03:57.867Z,17.08
2023-11-24T02:06:25.369Z,16.50
2023-11-24T02:08:52.714Z,19.00
2023-11-24T02:11:20.097Z,20.02
2023-11-24T02:13:51.098Z,21.92
2023-11-24T02:16:19.861Z,18.45
2023-11-24T02:18:47.873Z,24.40
2023-11-24T02:21:15.346Z,23.55
2023-11-24T02:23:43.892Z,22.85
2023-11-24T02:26:11.531Z,29.02
2023-11-24T02:28:38.866Z,29.83
2023-11-24T02:31:08.329Z,27.90
2023-11-24T02:33:35.671Z,26.67
2023-11-24T02:36:07.161Z,33.55
2023-11-24T02:38:34.664Z,35.70
2023-11-24T02:41:02.585Z,40.92
2023-11-24T02:43:30.045Z,37.80
2023-11-24T02:45:57.213Z,37.80
2023-11-24T02:48:24.631Z,36.42
2023-11-24T02:50:51.988Z,35.15
2023-11-24T02:53:19.430Z,36.42
2023-11-24T02:55:46.649Z,39.72
2023-11-24T02:58:13.900Z,39.53
2023-11-24T03:00:41.041Z,37.15
2023-11-24T03:03:08.820Z,37.70
2023-11-24T03:05:36.278Z,34.53
2023-11-24T03:08:04.500Z,34.85
2023-11-24T03:10:32.006Z,31.30
2023-11-24T03:12:59.222Z,31.77
2023-11-24T03:15:27.236Z,34.15
2023-11-24T03:17:54.578Z,29.50
2023-11-24T03:20:22.776Z,29.40
2023-11-24T03:22:49.941Z,30.67
2023-11-24T03:25:17.407Z,30.27
2023-11-24T03:27:45.743Z,32.15
2023-11-24T03:30:14.613Z,31.17
2023-11-24T03:32:42.273Z,30.02
2023-11-24T03:35:09.867Z,32.83
2023-11-24T03:37:38.325Z,31.70
2023-11-24T03:40:06.862Z,31.60
2023-11-24T03:42:34.134Z,30.17
2023-11-24T03:45:02.559Z,29.52
2023-11-24T03:47:33.763Z,30.15
2023-11-24T03:50:01.171Z,31.42
2023-11-24T03:52:34.159Z,29.00
2023-11-24T03:55:01.568Z,27.52
2023-11-24T03:57:31.276Z,27.50
2023-11-24T03:59:59.547Z,26.77
2023-11-24T04:02:26.809Z,26.77
2023-11-24T04:04:55.275Z,27.85
2023-11-24T04:07:22.311Z,25.48
2023-11-24T04:09:49.739Z,26.98
2023-11-24T04:12:16.883Z,25.25
2023-11-24T04:14:44.108Z,24.58
2023-11-24T04:17:12.010Z,21.20
2023-11-24T04:19:39.563Z,22.23
2023-11-24T04:22:07.700Z,20.75
2023-11-24T04:24:34.928Z,19.85
2023-11-24T04:27:02.972Z,20.13
2023-11-24T04:29:31.891Z,19.42
2023-11-24T04:31:59.001Z,18.83
2023-11-24T04:34:26.540Z,18.40
2023-11-24T04:36:55.160Z,19.95
2023-11-24T04:39:22.510Z,20.27
2023-11-24T04:41:49.793Z,18.70
2023-11-24T04:44:16.839Z,21.30
2023-11-24T04:46:44.209Z,21.65
2023-11-24T04:49:11.877Z,21.05
2023-11-24T04:51:39.294Z,20.23
2023-11-24T04:54:06.521Z,20.55
2023-11-24T04:56:34.608Z,20.20
2023-11-24T04:59:01.751Z,20.25
2023-11-24T05:01:30.529Z,19.83
2023-11-24T05:04:00.612Z,21.45
2023-11-24T05:06:28.185Z,19.77
2023-11-24T05:08:55.422Z,21.77
2023-11-24T05:11:22.875Z,21.85
2023-11-24T05:13:50.562Z,20.67
2023-11-24T05:16:18.660Z,21.70
2023-11-24T05:18:45.860Z,21.25
2023-11-24T05:21:13.197Z,21.75
2023-11-24T05:23:40.407Z,22.48
2023-11-24T05:26:08.424Z,21.80
2023-11-24T05:28:35.761Z,24.50
2023-11-24T05:31:05.135Z,21.55
2023-11-24T05:36:01.746Z,20.10
2023-11-24T05:38:29.043Z,20.77
2023-11-24T05:40:56.183Z,22.90
2023-11-24T05:43:23.316Z,20.60
2023-11-24T05:45:50.569Z,25.08
2023-11-24T05:48:18.172Z,20.85
2023-11-24T05:50:45.425Z,21.42
2023-11-24T05:53:12.773Z,20.02
2023-11-24T05:55:40.444Z,22.23
2023-11-24T05:58:07.771Z,23.08
2023-11-24T06:00:35.018Z,21.35
2023-11-24T06:03:02.333Z,23.10
2023-11-24T06:05:31.335Z,20.63
2023-11-24T06:07:59.349Z,21.67
2023-11-24T06:10:26.551Z,22.35
2023-11-24T06:12:53.828Z,23.45
2023-11-24T06:15:21.268Z,21.88
2023-11-24T06:17:49.833Z,25.75
2023-11-24T06:20:17.756Z,24.38
2023-11-24T06:22:45.888Z,25.48
2023-11-24T06:25:16.220Z,27.60
2023-11-24T06:27:45.693Z,25.88
2023-11-24T06:30:13.685Z,26.48
2023-11-24T06:32:41.077Z,26.45
2023-11-24T06:35:08.655Z,26.33
2023-11-24T06:37:35.896Z,28.85
2023-11-24T06:40:06.624Z,26.95
2023-11-24T06:42:33.814Z,31.25
2023-11-24T06:45:01.360Z,28.67
2023-11-24T06:47:29.052Z,31.85
2023-11-24T06:49:57.133Z,32.08
2023-11-24T06:52:24.686Z,30.77
2023-11-24T06:54:51.949Z,33.90
2023-11-24T06:57:19.133Z,33.65
2023-11-24T06:59:46.189Z,33.80
2023-11-24T07:02:13.432Z,37.67
2023-11-24T07:04:41.142Z,32.92
2023-11-24T07:07:08.426Z,33.88
2023-11-24T07:09:35.564Z,35.30
2023-11-24T07:12:03.658Z,33.08
2023-11-24T07:14:30.957Z,33.30
2023-11-24T07:16:58.247Z,33.47
2023-11-24T07:19:25.574Z,34.20
2023-11-24T07:21:52.884Z,34.13
2023-11-24T07:24:20.012Z,35.42
2023-11-24T07:26:47.210Z,34.90
2023-11-24T07:29:15.583Z,34.58
2023-11-24T07:31:42.802Z,35.60
2023-11-24T07:34:11.975Z,32.17
2023-11-24T07:36:39.268Z,30.98
2023-11-24T07:39:07.445Z,32.25
2023-11-24T07:41:34.671Z,32.03
2023-11-24T07:44:03.061Z,31.88
2023-11-24T07:46:30.317Z,31.45
2023-11-24T07:48:58.542Z,31.10
2023-11-24T07:51:25.781Z,31.25
2023-11-24T07:53:52.944Z,31.20
2023-11-24T07:56:22.862Z,29.13
2023-11-24T07:58:50.104Z,30.95
2023-11-24T08:01:17.582Z,29.83
2023-11-24T08:03:45.434Z,29.55
2023-11-24T08:06:12.811Z,31.13
2023-11-24T08:08:40.051Z,31.00
2023-11-24T08:11:07.148Z,27.65
2023-11-24T08:13:34.503Z,26.27
2023-11-24T08:16:02.321Z,26.63
2023-11-24T08:18:29.847Z,24.17
2023-11-24T08:20:59.313Z,22.38
2023-11-24T08:23:26.417Z,20.38
2023-11-24T08:25:53.774Z,20.15
2023-11-24T08:28:20.793Z,23.25
2023-11-24T08:30:50.276Z,21.65
2023-11-24T08:35:44.961Z,24.02
2023-11-24T08:38:13.172Z,22.65
2023-11-24T08:40:40.455Z,22.00
2023-11-24T08:43:07.708Z,25.45
2023-11-24T08:45:35.701Z,15.15
2023-11-24T08:48:03.167Z,15.13
2023-11-24T08:50:30.331Z,15.75
2023-11-24T08:52:57.397Z,16.98
2023-11-24T08:55:24.591Z,17.88
2023-11-24T08:57:52.639Z,15.68
2023-11-24T09:00:39.485Z,18.48
2023-11-24T09:03:06.763Z,19.92
2023-11-24T09:05:34.621Z,20.17
2023-11-24T09:08:01.826Z,20.73
2023-11-24T09:10:29.935Z,20.42
2023-11-24T09:12:57.262Z,20.23
2023-11-24T09:15:25.417Z,21.15
2023-11-24T09:17:52.831Z,20.95
2023-11-24T09:20:20.096Z,21.27
2023-11-24T09:22:47.250Z,20.95
2023-11-24T09:25:16.941Z,22.52
2023-11-24T09:27:46.953Z,22.30
2023-11-24T09:30:14.412Z,22.55
2023-11-24T09:32:44.315Z,18.70
2023-11-24T09:35:12.693Z,15.25
2023-11-24T09:37:39.983Z,17.08
2023-11-24T09:40:17.515Z,18.40
2023-11-24T09:42:47.262Z,17.00
2023-11-24T09:45:19.175Z,18.17
2023-11-24T09:47:51.803Z,17.00
2023-11-24T09:50:25.210Z,18.85
2023-11-24T09:52:58.750Z,19.35
2023-11-24T09:55:28.216Z,17.85
2023-11-24T09:57:58.029Z,18.38
2023-11-24T10:00:27.497Z,18.23
2023-11-24T10:03:00.181Z,18.30
2023-11-24T10:05:27.892Z,17.38
2023-11-24T10:07:56.353Z,18.17
2023-11-24T10:10:25.611Z,17.88
2023-11-24T10:12:55.070Z,18.30
2023-11-24T10:15:22.562Z,18.83
2023-11-24T10:17:50.298Z,19.13
2023-11-24T10:20:30.111Z,19.55
2023-11-24T10:23:00.109Z,19.73
2023-11-24T10:25:30.262Z,20.60
2023-11-24T10:28:00.779Z,19.92
2023-11-24T10:30:27.936Z,20.00
2023-11-24T10:32:57.773Z,25.33
2023-11-24T10:35:26.240Z,21.60
2023-11-24T10:37:54.077Z,23.42
2023-11-24T10:40:22.264Z,27.70
2023-11-24T10:42:51.786Z,30.90
2023-11-24T10:45:22.542Z,33.17
2023-11-24T10:48:01.536Z,34.00
2023-11-24T10:50:30.651Z,33.47
2023-11-24T10:53:16.353Z,34.40
2023-11-24T10:55:46.717Z,35.55
2023-11-24T10:58:14.738Z,36.28
2023-11-24T11:00:42.204Z,36.95
2023-11-24T11:03:13.743Z,38.33
2023-11-24T11:06:18.509Z,38.67
2023-11-24T11:08:58.406Z,38.45
2023-11-24T11:11:40.960Z,39.53
2023-11-24T11:14:09.561Z,40.85
2023-11-24T11:16:38.716Z,36.70
2023-11-24T11:19:35.018Z,36.33
2023-11-24T11:22:02.849Z,36.92
2023-11-24T11:24:30.391Z,37.30
2023-11-24T11:26:59.318Z,35.00
2023-11-24T11:29:30.144Z,34.67
2023-11-24T11:31:57.847Z,34.50
2023-11-24T11:34:33.225Z,35.28
2023-11-24T11:37:13.294Z,35.58
2023-11-24T11:39:55.232Z,32.67
2023-11-24T11:42:33.202Z,31.35
2023-11-24T11:45:11.791Z,31.23
2023-11-24T11:48:00.081Z,27.90
2023-11-24T11:50:27.373Z,27.75
2023-11-24T11:52:59.242Z,27.02
2023-11-24T11:55:26.891Z,26.70
2023-11-24T11:57:55.435Z,27.58
2023-11-24T12:00:26.890Z,28.75
2023-11-24T12:02:56.368Z,26.80
2023-11-24T12:05:24.572Z,25.30
2023-11-24T12:07:54.994Z,25.23
2023-11-24T12:10:22.417Z,25.67
2023-11-24T12:12:50.206Z,24.38
2023-11-24T12:15:19.145Z,22.15
2023-11-24T12:17:47.222Z,21.98
2023-11-24T12:20:16.355Z,27.05
2023-11-24T12:22:45.077Z,25.58
2023-11-24T12:25:14.354Z,24.80
2023-11-24T12:27:45.795Z,24.52
2023-11-24T12:30:16.209Z,27.50
2023-11-24T12:32:44.532Z,23.05
2023-11-24T12:35:12.673Z,23.88
2023-11-24T12:37:45.581Z,23.10
2023-11-24T12:40:13.283Z,25.63
2023-11-24T12:42:44.645Z,21.10
2023-11-24T12:45:13.811Z,24.27
2023-11-24T12:47:42.611Z,24.35
2023-11-24T12:50:14.821Z,23.40
2023-11-24T12:52:46.932Z,25.20
2023-11-24T12:55:14.358Z,21.77
2023-11-24T12:57:45.432Z,23.35
2023-11-24T13:00:18.059Z,21.95
2023-11-24T13:02:46.638Z,20.63
2023-11-24T13:05:14.907Z,21.67
2023-11-24T13:07:43.070Z,19.63
2023-11-24T13:10:12.701Z,24.97
2023-11-24T13:15:09.176Z,16.83
2023-11-24T13:17:37.134Z,18.38
2023-11-24T13:20:05.155Z,20.23
2023-11-24T13:22:35.398Z,19.20
2023-11-24T13:25:02.922Z,19.33
2023-11-24T13:27:32.936Z,18.13
2023-11-24T13:30:00.854Z,18.60
2023-11-24T13:32:29.642Z,20.02
2023-11-24T13:34:58.033Z,23.23
2023-11-24T13:37:25.253Z,22.93
2023-11-24T13:39:52.720Z,22.92
2023-11-24T13:42:21.506Z,21.15
2023-11-24T13:44:49.280Z,21.25
2023-11-24T13:47:17.574Z,20.80
2023-11-24T13:49:47.635Z,21.25
2023-11-24T13:52:16.182Z,21.98
2023-11-24T13:54:43.702Z,21.53
2023-11-24T13:57:11.151Z,22.50
2023-11-24T13:59:38.309Z,24.75
2023-11-24T14:02:06.894Z,23.15
2023-11-24T14:04:34.850Z,24.03
2023-11-24T14:07:02.164Z,23.73
2023-11-24T14:09:41.138Z,21.63
2023-11-24T14:12:10.591Z,22.88
2023-11-24T14:14:38.432Z,24.92
2023-11-24T14:17:05.612Z,22.88
2023-11-24T14:19:32.816Z,23.65
2023-11-24T14:22:01.977Z,22.88
2023-11-24T14:24:29.234Z,23.60
2023-11-24T14:26:56.767Z,24.20
2023-11-24T14:29:24.576Z,25.25
2023-11-24T14:31:51.660Z,24.85
2023-11-24T14:34:20.356Z,23.83
2023-11-24T14:36:47.784Z,25.45
2023-11-24T14:39:27.151Z,24.65
2023-11-24T14:41:58.704Z,25.80
2023-11-24T14:44:26.110Z,25.25
2023-11-24T14:46:53.660Z,25.52
2023-11-24T14:49:21.043Z,24.60
2023-11-24T14:51:49.900Z,26.15
2023-11-24T14:54:19.434Z,23.70
2023-11-24T14:56:49.383Z,21.98
2023-11-24T14:59:18.098Z,25.40
2023-11-24T15:01:45.644Z,25.38
2023-11-24T15:04:20.128Z,24.50
2023-11-24T15:06:52.156Z,23.38
2023-11-24T15:09:20.411Z,24.27
2023-11-24T15:11:53.607Z,25.45
2023-11-24T15:14:33.608Z,25.05
2023-11-24T15:17:17.203Z,27.10
2023-11-24T15:19:47.005Z,26.70
2023-11-24T15:22:20.379Z,31.35
2023-11-24T15:24:54.621Z,26.33
2023-11-24T15:27:22.154Z,27.77
2023-11-24T15:29:50.204Z,26.40
2023-11-24T15:32:21.170Z,26.90
2023-11-24T15:34:48.499Z,26.77
2023-11-24T15:37:15.566Z,23.65
2023-11-24T15:39:44.035Z,23.10
2023-11-24T15:42:15.997Z,22.05
2023-11-24T15:44:45.200Z,23.02
2023-11-24T15:47:12.559Z,24.10
2023-11-24T15:49:43.446Z,20.70
2023-11-24T15:52:14.762Z,25.73
2023-11-24T15:54:43.815Z,50.85
2023-11-24T15:57:11.418Z,24.67
2023-11-24T15:59:44.232Z,25.73
2023-11-24T16:02:15.631Z,25.58
2023-11-24T16:04:46.495Z,23.15
2023-11-24T16:07:18.735Z,24.45
2023-11-24T16:09:46.787Z,23.73
2023-11-24T16:12:15.417Z,22.35
2023-11-24T16:14:45.130Z,23.13
2023-11-24T16:17:13.748Z,23.48
2023-11-24T16:19:41.291Z,24.05
2023-11-24T16:22:11.732Z,23.80
2023-11-24T16:24:41.071Z,24.80
2023-11-24T16:27:10.159Z,23.33
2023-11-24T16:29:37.209Z,23.98
2023-11-24T16:32:05.015Z,25.10
2023-11-24T16:34:32.348Z,29.00
2023-11-24T16:37:00.155Z,25.60
2023-11-24T16:39:30.300Z,30.05
2023-11-24T16:41:58.604Z,30.17
2023-11-24T16:44:26.373Z,34.13
2023-11-24T16:46:59.164Z,30.00
2023-11-24T16:49:29.339Z,30.55
2023-11-24T16:51:56.769Z,38.53
2023-11-24T16:54:24.158Z,32.70
2023-11-24T16:56:51.479Z,30.65
2023-11-24T16:59:21.689Z,32.95
2023-11-24T17:01:51.363Z,33.22
2023-11-24T17:04:19.378Z,36.42
2023-11-24T17:06:51.339Z,32.40
2023-11-24T17:09:20.254Z,30.48
2023-11-24T17:11:47.938Z,29.17
2023-11-24T17:14:15.758Z,25.70
2023-11-24T17:16:44.530Z,26.92
2023-11-24T17:19:17.125Z,28.48
2023-11-24T17:21:45.554Z,27.27
2023-11-24T17:24:13.244Z,30.38
2023-11-24T17:26:41.568Z,36.25
2023-11-24T17:29:14.698Z,60.78
2023-11-24T17:31:44.033Z,32.75
2023-11-24T17:34:15.767Z,28.92
2023-11-24T17:36:43.265Z,31.55
2023-11-24T17:39:12.814Z,31.38
2023-11-24T17:41:40.866Z,30.58
2023-11-24T17:44:12.727Z,31.55
2023-11-24T17:46:41.219Z,32.00
2023-11-24T17:49:12.733Z,29.77
2023-11-24T17:51:42.496Z,28.85
2023-11-24T17:54:11.187Z,28.52
2023-11-24T17:56:38.555Z,28.20
2023-11-24T17:59:06.902Z,26.77
2023-11-24T18:01:34.672Z,25.73
2023-11-24T18:04:02.049Z,25.05
2023-11-24T18:06:30.789Z,26.00
2023-11-24T18:08:58.807Z,28.88
2023-11-24T18:11:32.876Z,28.02
2023-11-24T18:14:01.157Z,27.35
2023-11-24T18:16:29.164Z,26.73
2023-11-24T18:18:56.535Z,34.90
2023-11-24T18:21:25.960Z,27.67
2023-11-24T18:23:53.338Z,26.92
2023-11-24T18:26:21.142Z,27.48
2023-11-24T18:28:50.541Z,26.42
2023-11-24T18:33:45.579Z,26.83
2023-11-24T18:36:13.092Z,29.00
2023-11-24T18:38:40.875Z,26.38
2023-11-24T18:41:09.364Z,27.10
2023-11-24T18:43:40.313Z,28.48
2023-11-24T18:46:09.173Z,27.95
2023-11-24T18:48:36.795Z,28.75
2023-11-24T18:51:04.199Z,27.63
2023-11-24T18:53:31.484Z,28.23
2023-11-24T18:55:59.653Z,28.65
2023-11-24T18:58:27.090Z,26.85
2023-11-24T19:00:54.519Z,35.05
2023-11-24T19:03:21.799Z,43.15
2023-11-24T19:05:49.377Z,24.98
2023-11-24T19:08:16.843Z,23.58
2023-11-24T19:10:44.628Z,23.70
2023-11-24T19:13:16.899Z,24.20
2023-11-24T19:15:47.049Z,22.55
2023-11-24T19:18:14.993Z,22.20
2023-11-24T19:20:42.996Z,22.77
2023-11-24T19:23:10.626Z,22.75
2023-11-24T19:25:38.169Z,20.70
2023-11-24T19:28:05.570Z,18.27
2023-11-24T19:30:35.180Z,19.88
2023-11-24T19:33:03.064Z,20.60
2023-11-24T19:35:30.525Z,17.70
2023-11-24T19:37:57.869Z,17.10
2023-11-24T19:40:25.413Z,16.85
2023-11-24T19:42:53.082Z,15.02
2023-11-24T19:45:20.513Z,15.45
2023-11-24T19:47:48.432Z,12.88
2023-11-24T19:50:15.852Z,11.85
2023-11-24T19:52:43.168Z,14.68
2023-11-24T19:55:10.462Z,14.00
2023-11-24T19:57:37.813Z,15.57
2023-11-24T20:00:09.957Z,15.25
2023-11-24T20:02:38.232Z,15.35
2023-11-24T20:05:07.151Z,14.32
2023-11-24T20:07:34.579Z,15.70
2023-11-24T20:10:02.128Z,15.65
2023-11-24T20:12:32.229Z,15.57
2023-11-24T20:14:59.497Z,13.35
2023-11-24T20:17:26.861Z,14.25
2023-11-24T20:19:54.413Z,15.43
2023-11-24T20:22:21.694Z,14.68
2023-11-24T20:24:49.267Z,13.90
2023-11-24T20:27:18.036Z,15.52
2023-11-24T20:29:45.938Z,14.95
2023-11-24T20:32:13.788Z,16.08
2023-11-24T20:34:41.169Z,15.80
2023-11-24T20:37:09.063Z,14.18
2023-11-24T20:39:36.241Z,14.10
2023-11-24T20:42:03.638Z,12.07
2023-11-24T20:44:33.239Z,13.88
2023-11-24T20:47:01.466Z,13.85
2023-11-24T20:49:29.359Z,12.77
2023-11-24T20:51:58.409Z,13.50
2023-11-24T20:54:46.152Z,12.63
2023-11-24T20:57:14.506Z,11.68
2023-11-24T20:59:41.762Z,13.85
2023-11-24T21:02:09.369Z,13.55
2023-11-24T21:04:36.840Z,13.02
2023-11-24T21:07:04.360Z,12.90
2023-11-24T21:09:32.101Z,13.77
2023-11-24T21:11:59.581Z,12.18
2023-11-24T21:14:27.709Z,12.45
2023-11-24T21:16:55.582Z,12.68
2023-11-24T21:19:22.780Z,15.65
2023-11-24T21:21:50.533Z,14.88
2023-11-24T21:24:17.945Z,20.98
2023-11-24T21:26:45.105Z,23.15
2023-11-24T21:29:12.563Z,16.33
2023-11-24T21:31:39.819Z,16.40
2023-11-24T21:34:07.576Z,23.27
2023-11-24T21:36:36.106Z,15.35
2023-11-24T21:39:06.055Z,11.60
2023-11-24T21:41:34.943Z,10.68
2023-11-24T21:44:02.396Z,9.40
2023-11-24T21:46:29.730Z,9.20
2023-11-24T21:48:57.128Z,8.00
2023-11-24T21:51:24.360Z,7.40
2023-11-24T21:53:52.038Z,9.65
2023-11-24T21:56:27.433Z,9.90
2023-11-24T21:58:54.944Z,10.60
2023-11-24T22:01:23.818Z,10.60
2023-11-24T22:03:53.375Z,16.67
2023-11-24T22:06:25.443Z,12.63
2023-11-24T22:08:53.339Z,11.15
2023-11-24T22:11:20.616Z,10.35
2023-11-24T22:13:47.984Z,29.85
2023-11-24T22:16:15.239Z,7.68
2023-11-24T22:18:42.461Z,8.18
2023-11-24T22:21:09.742Z,4.93
2023-11-24T22:23:36.972Z,8.60
2023-11-24T22:26:04.294Z,7.10
2023-11-24T22:28:31.519Z,6.65
2023-11-24T22:30:58.841Z,6.80
2023-11-24T22:33:26.243Z,6.63
2023-11-24T22:35:53.471Z,7.22
2023-11-24T22:38:20.684Z,7.60
2023-11-24T22:40:49.568Z,6.28
2023-11-24T22:43:16.982Z,6.32
2023-11-24T22:45:44.303Z,6.32
2023-11-24T22:48:12.467Z,4.80
2023-11-24T22:50:39.889Z,5.95
2023-11-24T22:53:07.085Z,5.57
2023-11-24T22:55:34.573Z,5.38
2023-11-24T22:58:01.926Z,5.30
2023-11-24T23:00:41.200Z,4.40
2023-11-24T23:03:13.323Z,4.22
2023-11-24T23:05:40.768Z,4.30
2023-11-24T23:08:08.049Z,4.50
2023-11-24T23:10:35.487Z,4.65
2023-11-24T23:13:04.486Z,5.80
2023-11-24T23:15:32.642Z,4.65
2023-11-24T23:18:01.380Z,4.28
2023-11-24T23:20:29.408Z,3.70
2023-11-24T23:22:56.644Z,3.55
2023-11-24T23:25:24.831Z,4.00
2023-11-24T23:27:52.288Z,3.38
2023-11-24T23:30:19.622Z,3.25
2023-11-24T23:32:46.882Z,4.53
2023-11-24T23:35:14.474Z,3.50
2023-11-24T23:37:45.318Z,3.85
2023-11-24T23:40:15.205Z,3.67
2023-11-24T23:42:46.432Z,3.78
2023-11-24T23:45:15.318Z,4.35
2023-11-24T23:47:43.166Z,3.90
2023-11-24T23:50:10.878Z,4.25
2023-11-24T23:52:38.144Z,4.20
2023-11-24T23:55:06.063Z,4.63
2023-11-24T23:57:38.329Z,4.30
